Time;durP1;ratioP1;P1;durP2;ratioP2;P2;SDS_P1;SDS_P2;PMS_P1;PMS_P2;Temp;Humidity;BMP_temperature;BMP_pressure;BME280_temperature;BME280_humidity;BME280_pressure;Samples;Min_cycle;Max_cycle;Signal;HPM_P1;HPM_P2
2022/10/31 00:01:35;;;;;;;4.97;3.47;;;;;;;14.22;45.10;99823.72;5012447;28;20030;-80
2022/10/31 00:04:00;;;;;;;5.95;3.72;;;;;;;13.78;45.34;99760.31;5012609;28;20026;-80
2022/10/31 00:06:27;;;;;;;6.00;3.85;;;;;;;14.20;45.25;99819.63;5012233;28;20052;-80
2022/10/31 00:08:55;;;;;;;5.35;2.95;;;;;;;14.19;45.22;99818.00;5012357;28;20077;-80
2022/10/31 00:11:21;;;;;;;7.32;3.33;;;;;;;13.45;45.27;99708.84;5011015;28;20022;-78
2022/10/31 00:13:47;;;;;;;5.40;3.17;;;;;;;14.09;45.24;99822.78;5012093;28;20117;-80
2022/10/31 00:16:17;;;;;;;5.60;3.47;;;;;;;14.06;45.42;99800.09;5012258;28;20430;-80
2022/10/31 00:18:43;;;;;;;6.28;3.67;;;;;;;13.79;45.09;99774.41;5012334;28;20029;-79
2022/10/31 00:21:09;;;;;;;6.82;3.72;;;;;;;14.03;45.34;99803.16;5012122;28;20026;-80
2022/10/31 00:23:34;;;;;;;7.15;3.55;;;;;;;13.64;45.29;99751.44;5012047;28;20037;-80
2022/10/31 00:26:01;;;;;;;6.20;3.30;;;;;;;13.95;45.49;99832.50;5010702;28;20022;-80
2022/10/31 00:28:27;;;;;;;6.60;3.65;;;;;;;13.25;45.79;99688.25;5011944;28;20053;-80
2022/10/31 00:30:52;;;;;;;6.82;3.92;;;;;;;13.77;45.55;99781.72;5010670;28;20495;-79
2022/10/31 00:33:18;;;;;;;6.22;3.60;;;;;;;13.30;45.45;99733.59;5011027;28;20072;-79
2022/10/31 00:35:49;;;;;;;7.88;3.88;;;;;;;13.89;45.58;99801.41;5011969;28;20022;-80
2022/10/31 00:38:15;;;;;;;7.35;4.18;;;;;;;13.09;45.59;99691.16;5011877;28;20522;-80
2022/10/31 00:40:40;;;;;;;9.50;4.50;;;;;;;13.73;46.02;99802.53;5011863;28;20034;-80
2022/10/31 00:43:05;;;;;;;9.93;4.20;;;;;;;13.48;45.63;99777.41;5011745;28;20022;-80
2022/10/31 00:45:31;;;;;;;7.70;4.22;;;;;;;13.65;45.92;99795.53;5011873;28;20040;-80
2022/10/31 00:47:56;;;;;;;6.68;3.60;;;;;;;13.34;45.97;99745.44;5011628;28;20176;-80
2022/10/31 00:50:22;;;;;;;7.10;4.10;;;;;;;12.91;45.87;99664.28;5010364;28;20029;-79
2022/10/31 00:52:47;;;;;;;5.47;3.83;;;;;;;13.45;46.07;99749.44;5011630;28;20478;-80
2022/10/31 00:55:12;;;;;;;7.43;3.78;;;;;;;13.03;45.79;99684.78;5011723;28;20032;-80
2022/10/31 00:57:38;;;;;;;6.72;3.42;;;;;;;13.34;45.97;99739.31;5011734;28;20477;-79
2022/10/31 01:00:04;;;;;;;9.65;3.65;;;;;;;13.49;46.01;99760.50;5010219;28;20030;-79
2022/10/31 01:02:29;;;;;;;8.70;4.00;;;;;;;12.67;46.00;99626.56;5010207;28;20030;-80
2022/10/31 01:04:55;;;;;;;6.32;3.70;;;;;;;13.22;45.61;99740.84;5010304;28;20080;-80
2022/10/31 01:07:20;;;;;;;8.88;3.83;;;;;;;13.00;45.88;99684.34;5011634;28;20050;-80
2022/10/31 01:09:46;;;;;;;5.70;3.92;;;;;;;13.03;45.72;99684.78;5011675;28;20100;-80
2022/10/31 01:12:11;;;;;;;5.32;3.60;;;;;;;13.14;45.66;99703.81;5011328;28;20105;-80
2022/10/31 01:14:36;;;;;;;4.63;3.33;;;;;;;13.70;46.04;99797.59;5009977;28;20036;-80
2022/10/31 01:17:02;;;;;;;9.90;3.63;;;;;;;13.31;45.46;99737.88;5011460;28;20026;-80
2022/10/31 01:19:27;;;;;;;7.07;3.70;;;;;;;13.32;45.84;99762.56;5011407;28;20474;-80
2022/10/31 01:21:56;;;;;;;6.82;3.50;;;;;;;11.15;45.87;99404.44;5011158;28;20029;-80
2022/10/31 01:24:22;;;;;;;7.80;3.97;;;;;;;13.62;46.13;99797.75;5026263;28;20092;-79
2022/10/31 01:26:47;;;;;;;5.50;3.30;;;;;;;13.53;45.93;99817.44;5011259;28;20473;-80
2022/10/31 01:29:12;;;;;;;3.92;3.20;;;;;;;13.57;46.06;99808.09;5011288;28;20414;-80
2022/10/31 01:31:39;;;;;;;6.03;3.20;;;;;;;13.57;45.91;99805.44;5011329;28;20026;-80
2022/10/31 01:34:06;;;;;;;7.07;3.00;;;;;;;13.13;46.35;99756.03;5011291;28;20021;-80
2022/10/31 01:36:37;;;;;;;3.97;2.70;;;;;;;13.48;46.09;99801.28;5011231;28;20026;-80
2022/10/31 01:39:08;;;;;;;4.47;2.40;;;;;;;13.17;46.07;99749.38;5009958;28;20025;-80
2022/10/31 01:41:37;;;;;;;4.95;2.63;;;;;;;13.48;46.38;99798.63;5011233;28;20483;-80
2022/10/31 01:44:14;;;;;;;4.45;3.10;;;;;;;13.49;46.39;99790.50;5011280;28;20064;-80
2022/10/31 01:46:40;;;;;;;6.63;3.13;;;;;;;13.49;46.23;99802.94;5011130;28;20030;-80
2022/10/31 01:49:14;;;;;;;4.40;3.13;;;;;;;13.04;46.35;99728.81;5009787;28;20388;-80
2022/10/31 01:51:50;;;;;;;4.60;2.40;;;;;;;13.02;45.92;99720.25;5010985;28;20076;-80
2022/10/31 01:54:20;;;;;;;4.28;2.83;;;;;;;12.96;46.31;99705.09;5011084;28;20113;-80
2022/10/31 01:56:50;;;;;;;6.70;3.20;;;;;;;12.05;46.41;99568.06;5010994;28;20084;-80
2022/10/31 01:59:19;;;;;;;3.95;2.60;;;;;;;12.75;46.39;99669.84;5010049;28;20129;-80
2022/10/31 02:01:46;;;;;;;5.10;2.75;;;;;;;13.49;46.32;99811.72;5010920;28;20018;-80
2022/10/31 02:04:12;;;;;;;5.85;3.00;;;;;;;13.49;46.58;99787.00;5011230;28;20061;-80
2022/10/31 02:06:49;;;;;;;6.32;2.83;;;;;;;13.50;46.42;99793.97;5010954;28;20180;-80
2022/10/31 02:09:16;;;;;;;7.63;2.92;;;;;;;13.50;46.71;99799.28;5011154;28;20049;-80
2022/10/31 02:11:43;;;;;;;6.57;3.00;;;;;;;12.21;46.82;99604.06;5009880;28;20116;-80
2022/10/31 02:14:09;;;;;;;5.05;2.97;;;;;;;12.93;46.86;99731.16;5014306;28;20052;-80
2022/10/31 02:16:35;;;;;;;8.55;3.10;;;;;;;12.91;47.05;99741.13;5014277;28;20565;-80
2022/10/31 02:19:00;;;;;;;6.65;4.20;;;;;;;12.67;47.28;99699.91;5014346;28;20029;-80
2022/10/31 02:21:49;;;;;;;9.32;6.45;;;;;;;13.35;47.76;99812.56;5013066;28;20026;-80
2022/10/31 02:24:33;;;;;;;11.10;6.88;;;;;;;13.31;47.71;99814.78;5014547;28;20029;-80
2022/10/31 02:27:19;;;;;;;10.55;7.30;;;;;;;13.31;47.63;99819.25;5012942;28;20032;-80
2022/10/31 02:29:53;;;;;;;14.88;7.68;;;;;;;13.32;47.36;99819.06;5012864;28;20044;-80
2022/10/31 02:32:46;;;;;;;17.38;7.20;;;;;;;13.35;47.39;99828.47;5014282;28;20029;-80
2022/10/31 02:35:46;;;;;;;13.38;8.40;;;;;;;13.15;47.51;99790.31;5012908;28;20029;-80
2022/10/31 02:38:30;;;;;;;11.93;7.28;;;;;;;13.32;48.03;99827.03;5014040;28;20030;-80
2022/10/31 02:41:27;;;;;;;16.00;8.35;;;;;;;13.36;47.49;99824.81;5013912;28;20509;-80
2022/10/31 02:44:08;;;;;;;13.68;8.18;;;;;;;13.40;47.66;99827.94;5013970;28;20022;-80
2022/10/31 02:46:50;;;;;;;14.48;8.38;;;;;;;13.12;47.43;99791.50;5013956;28;20510;-80
2022/10/31 02:49:27;;;;;;;17.55;8.13;;;;;;;12.99;47.21;99770.16;5013815;28;20095;-80
2022/10/31 02:51:53;;;;;;;18.98;9.15;;;;;;;13.17;46.96;99806.88;5013850;28;20072;-80
2022/10/31 02:54:22;;;;;;;18.60;8.23;;;;;;;13.49;47.10;99842.72;5013763;28;20057;-80
2022/10/31 02:56:50;;;;;;;14.75;8.57;;;;;;;12.61;46.86;99712.03;5013652;28;20184;-80
2022/10/31 02:59:17;;;;;;;17.23;9.30;;;;;;;13.20;47.03;99812.63;5012178;28;20022;-80
2022/10/31 03:01:53;;;;;;;17.20;8.98;;;;;;;13.11;46.90;99797.00;5013558;28;20121;-80
2022/10/31 03:04:43;;;;;;;17.55;8.75;;;;;;;13.33;47.11;99825.19;5013742;28;20499;-80
2022/10/31 03:07:30;;;;;;;16.67;8.80;;;;;;;13.41;47.01;99856.09;5013417;28;20125;-80
2022/10/31 03:10:05;;;;;;;17.75;9.15;;;;;;;13.43;47.38;99849.59;5013472;28;20021;-80
2022/10/31 03:12:44;;;;;;;16.52;9.18;;;;;;;12.97;47.27;99774.81;5011862;28;20490;-80
2022/10/31 03:15:21;;;;;;;19.33;8.98;;;;;;;13.29;47.25;99842.50;5013044;28;20026;-80
2022/10/31 03:18:15;;;;;;;14.32;8.25;;;;;;;13.49;47.14;99854.16;5012422;28;20080;-80
2022/10/31 03:20:47;;;;;;;15.23;8.50;;;;;;;13.08;47.20;99792.88;5012508;28;20038;-80
2022/10/31 03:23:16;;;;;;;16.13;8.43;;;;;;;12.81;46.97;99754.69;5012960;28;20034;-80
2022/10/31 03:25:43;;;;;;;17.13;8.02;;;;;;;12.91;47.16;99765.78;5012769;28;20132;-80
2022/10/31 03:28:11;;;;;;;15.00;7.35;;;;;;;13.21;47.25;99808.13;5011867;28;20030;-80
2022/10/31 03:30:40;;;;;;;14.02;7.50;;;;;;;13.52;46.99;99859.09;5013134;28;20026;-80
2022/10/31 03:33:10;;;;;;;13.90;7.47;;;;;;;12.68;46.76;99718.28;5013029;28;20479;-80
2022/10/31 03:35:38;;;;;;;16.98;7.38;;;;;;;13.53;46.84;99852.75;5011498;28;20025;-80
2022/10/31 03:38:04;;;;;;;15.18;7.75;;;;;;;13.00;46.64;99771.81;5012997;28;20029;-80
2022/10/31 03:40:32;;;;;;;13.82;6.88;;;;;;;12.61;46.92;99716.53;5013267;28;20499;-80
2022/10/31 03:43:01;;;;;;;16.50;8.13;;;;;;;12.90;46.70;99750.91;5012781;28;20025;-80
2022/10/31 03:45:30;;;;;;;8.48;5.97;;;;;;;13.35;46.62;99821.34;5012799;28;20022;-80
2022/10/31 03:47:57;;;;;;;12.35;7.45;;;;;;;12.97;46.47;99764.22;5011602;28;20077;-80
2022/10/31 03:50:27;;;;;;;12.15;7.28;;;;;;;12.64;46.58;99709.06;5012774;28;20554;-80
2022/10/31 03:53:08;;;;;;;15.02;7.20;;;;;;;13.46;46.66;99853.72;5012559;28;20076;-80
2022/10/31 03:55:41;;;;;;;11.20;6.88;;;;;;;13.56;46.63;99859.53;5012738;28;20021;-80
2022/10/31 03:58:13;;;;;;;12.52;7.10;;;;;;;13.36;46.32;99817.69;5012591;28;20025;-80
2022/10/31 04:00:43;;;;;;;9.45;6.55;;;;;;;13.44;46.68;99829.22;5012596;28;20093;-80
2022/10/31 04:03:19;;;;;;;17.70;7.18;;;;;;;12.81;46.67;99744.09;5011413;28;20033;-80
2022/10/31 04:05:48;;;;;;;10.57;5.85;;;;;;;13.14;46.60;99812.53;5011215;28;20083;-80
2022/10/31 04:08:18;;;;;;;12.23;6.65;;;;;;;12.88;46.49;99773.31;5012299;28;20041;-80
2022/10/31 04:10:47;;;;;;;13.15;6.90;;;;;;;13.02;46.22;99775.09;5012277;28;20026;-80
2022/10/31 04:13:17;;;;;;;15.75;6.93;;;;;;;12.83;46.37;99768.56;5012229;28;20029;-80
2022/10/31 04:15:44;;;;;;;14.10;7.47;;;;;;;13.39;46.32;99827.13;5012158;28;20022;-80
2022/10/31 04:18:10;;;;;;;11.48;6.32;;;;;;;13.79;46.92;99877.91;5012026;28;20026;-80
2022/10/31 04:20:40;;;;;;;13.57;7.07;;;;;;;13.29;47.00;99792.94;5012126;28;20044;-80
2022/10/31 04:23:27;;;;;;;13.33;7.03;;;;;;;13.79;47.11;99860.13;5012193;28;20406;-80
2022/10/31 04:25:52;;;;;;;10.02;7.47;;;;;;;13.43;47.15;99801.84;5012015;28;20426;-80
2022/10/31 04:28:18;;;;;;;12.73;6.85;;;;;;;13.54;47.22;99793.38;5011875;28;20029;-80
2022/10/31 04:30:43;;;;;;;14.20;6.82;;;;;;;13.46;47.25;99777.59;5011817;28;20507;-80
2022/10/31 04:33:09;;;;;;;14.73;7.40;;;;;;;13.80;47.32;99831.78;5010766;28;20026;-80
2022/10/31 04:35:35;;;;;;;17.73;7.53;;;;;;;13.99;47.55;99876.22;5011674;28;20018;-80
2022/10/31 04:38:00;;;;;;;16.38;8.25;;;;;;;13.97;47.35;99857.84;5011786;28;20106;-80
2022/10/31 04:40:25;;;;;;;15.93;7.60;;;;;;;13.70;47.55;99810.03;5011795;28;20487;-80
2022/10/31 04:42:51;;;;;;;13.98;7.88;;;;;;;12.81;47.72;99672.53;5011915;28;20046;-80
2022/10/31 04:45:16;;;;;;;19.15;8.00;;;;;;;13.97;48.11;99863.16;5011920;28;20605;-80
2022/10/31 04:47:41;;;;;;;13.43;7.78;;;;;;;13.31;47.89;99748.47;5011895;28;20101;-80
2022/10/31 04:50:07;;;;;;;13.20;6.93;;;;;;;13.92;47.99;99839.00;5010571;28;20530;-80
2022/10/31 04:52:39;;;;;;;17.17;7.63;;;;;;;13.65;48.21;99805.31;5011615;28;20018;-80
2022/10/31 04:55:04;;;;;;;12.18;7.43;;;;;;;13.60;48.13;99789.16;5011602;28;20037;-80
2022/10/31 04:57:30;;;;;;;17.17;8.00;;;;;;;13.40;48.29;99758.97;5011794;28;20025;-80
2022/10/31 04:59:55;;;;;;;13.57;8.27;;;;;;;13.47;48.17;99770.47;5010507;28;20080;-80
2022/10/31 05:02:20;;;;;;;15.63;7.18;;;;;;;13.77;48.37;99834.81;5011447;28;20060;-80
2022/10/31 05:04:46;;;;;;;12.43;7.45;;;;;;;13.44;48.27;99778.81;5011362;28;20029;-80
2022/10/31 05:07:11;;;;;;;18.33;8.48;;;;;;;13.90;48.53;99841.03;5011528;28;20053;-80
2022/10/31 05:09:37;;;;;;;20.13;7.65;;;;;;;13.39;48.67;99755.50;5010272;28;20029;-80
2022/10/31 05:12:02;;;;;;;12.27;8.30;;;;;;;13.91;48.84;99832.06;5011629;28;20105;-80
2022/10/31 05:14:28;;;;;;;14.43;7.82;;;;;;;14.00;48.75;99840.72;5011996;28;20398;-80
2022/10/31 05:16:53;;;;;;;17.40;8.40;;;;;;;14.08;48.79;99853.84;5012225;28;20026;-80
2022/10/31 05:19:18;;;;;;;17.67;8.73;;;;;;;13.77;49.07;99800.31;5011789;28;20026;-80
2022/10/31 05:21:44;;;;;;;20.70;9.95;;;;;;;14.06;48.92;99855.88;5011481;28;20025;-81
2022/10/31 05:24:09;;;;;;;20.13;10.80;;;;;;;14.17;48.87;99878.44;5011274;28;20022;-80
2022/10/31 05:26:35;;;;;;;18.35;11.00;;;;;;;14.60;48.92;99927.81;5011461;28;20022;-80
2022/10/31 05:29:00;;;;;;;20.48;11.57;;;;;;;14.16;48.88;99855.56;5011319;28;20395;-80
2022/10/31 05:31:25;;;;;;;24.73;12.25;;;;;;;14.25;49.03;99878.31;5011364;28;20029;-80
2022/10/31 05:33:51;;;;;;;25.27;11.52;;;;;;;14.17;49.11;99859.84;5011163;28;20022;-80
2022/10/31 05:36:16;;;;;;;22.25;11.70;;;;;;;13.66;49.43;99817.56;5011235;28;20060;-80
2022/10/31 05:38:42;;;;;;;19.63;10.80;;;;;;;14.17;49.13;99851.88;5011216;28;20037;-80
2022/10/31 05:41:07;;;;;;;20.48;9.57;;;;;;;14.71;49.03;99944.25;5011269;28;20160;-80
2022/10/31 05:43:32;;;;;;;15.80;8.90;;;;;;;14.49;49.08;99890.34;5009933;28;20018;-80
2022/10/31 05:45:58;;;;;;;13.73;8.90;;;;;;;15.04;48.76;99963.06;5011349;28;20030;-80
2022/10/31 05:48:23;;;;;;;17.70;10.73;;;;;;;14.92;49.09;99936.22;5013324;28;20458;-80
2022/10/31 05:50:49;;;;;;;16.77;9.05;;;;;;;15.18;49.05;99970.91;5014733;28;20029;-80
2022/10/31 05:53:15;;;;;;;20.15;9.05;;;;;;;14.98;48.80;99927.44;5014793;28;20096;-80
2022/10/31 05:55:42;;;;;;;19.17;8.77;;;;;;;14.87;48.87;99904.91;5014810;28;20017;-80
2022/10/31 05:58:08;;;;;;;18.73;9.95;;;;;;;14.96;48.79;99900.25;5014945;28;20025;-80
2022/10/31 06:00:36;;;;;;;15.05;7.43;;;;;;;15.26;49.05;99961.94;5015248;28;20025;-80
2022/10/31 06:03:07;;;;;;;16.73;8.10;;;;;;;14.75;49.20;99861.25;5014640;28;20029;-79
2022/10/31 06:05:32;;;;;;;19.75;8.93;;;;;;;15.02;49.02;99899.44;5014650;28;20407;-80
2022/10/31 06:07:58;;;;;;;16.88;8.10;;;;;;;15.02;49.20;99883.50;5014558;28;20046;-80
2022/10/31 06:10:24;;;;;;;12.05;5.60;;;;;;;15.76;48.56;99987.38;5014740;28;20503;-80
2022/10/31 06:12:49;;;;;;;9.48;6.07;;;;;;;14.91;48.47;99841.53;5014249;28;20053;-80
2022/10/31 06:15:16;;;;;;;11.48;7.15;;;;;;;15.98;48.48;99997.84;5014333;28;20558;-80
2022/10/31 06:17:43;;;;;;;12.63;8.13;;;;;;;15.59;48.13;99940.81;5013080;28;20553;-79
2022/10/31 06:20:09;;;;;;;13.00;5.40;;;;;;;16.15;48.10;100002.59;5013082;28;20034;-80
2022/10/31 06:22:34;;;;;;;12.70;5.40;;;;;;;15.69;47.55;99922.63;5014141;28;20086;-80
2022/10/31 06:25:00;;;;;;;8.60;5.88;;;;;;;15.79;47.42;99922.25;5012555;28;20479;-80
2022/10/31 06:27:26;;;;;;;7.57;5.55;;;;;;;16.36;47.21;100014.94;5014295;28;20022;-79
2022/10/31 06:29:51;;;;;;;14.13;5.85;;;;;;;15.69;47.25;99889.88;5013005;28;20395;-80
2022/10/31 06:32:17;;;;;;;11.02;5.55;;;;;;;16.17;47.19;99967.75;5014195;28;20028;-80
2022/10/31 06:34:43;;;;;;;13.50;5.93;;;;;;;16.53;47.18;100032.19;5013867;28;20030;-80
2022/10/31 06:37:11;;;;;;;9.93;5.65;;;;;;;15.59;46.90;99858.28;5012548;28;20025;-79
2022/10/31 06:39:37;;;;;;;10.15;4.80;;;;;;;16.62;46.82;100015.97;5013954;28;20037;-80
2022/10/31 06:42:03;;;;;;;14.02;6.68;;;;;;;16.24;47.40;99952.59;5013787;28;20025;-80
2022/10/31 06:44:28;;;;;;;8.52;4.40;;;;;;;16.09;47.16;99926.16;5013883;28;20026;-79
2022/10/31 06:46:54;;;;;;;8.48;5.95;;;;;;;16.72;46.85;100024.41;5013920;28;20470;-80
2022/10/31 06:49:20;;;;;;;9.40;5.18;;;;;;;16.16;46.98;99920.84;5004628;28;20033;-80
2022/10/31 06:51:48;;;;;;;6.88;4.22;;;;;;;15.88;46.40;99873.09;5009374;28;20101;-80
2022/10/31 06:54:14;;;;;;;10.55;4.93;;;;;;;16.87;46.65;100025.00;5011554;28;20106;-80
2022/10/31 06:56:40;;;;;;;10.32;6.72;;;;;;;16.23;46.57;99907.50;5012290;28;20502;-79
2022/10/31 06:59:05;;;;;;;12.75;4.85;;;;;;;16.98;46.42;100024.38;5013207;28;20025;-80
2022/10/31 07:01:31;;;;;;;9.48;5.90;;;;;;;16.93;46.30;100032.19;5012300;28;20026;-80
2022/10/31 07:03:56;;;;;;;9.60;5.65;;;;;;;16.69;46.29;99952.84;5013547;28;20026;-80
2022/10/31 07:06:22;;;;;;;13.40;5.30;;;;;;;16.53;45.88;99914.91;5013397;28;20017;-80
2022/10/31 07:08:47;;;;;;;15.85;6.70;;;;;;;17.24;45.71;100026.19;5012492;28;20041;-80
2022/10/31 07:11:12;;;;;;;17.38;7.55;;;;;;;17.15;45.65;100012.25;5010654;28;20041;-80
2022/10/31 07:13:38;;;;;;;14.90;6.22;;;;;;;17.35;45.67;100027.41;5013380;28;20591;-79
2022/10/31 07:16:06;;;;;;;16.20;6.60;;;;;;;17.24;45.88;100001.38;5013167;28;20028;-80
2022/10/31 07:18:32;;;;;;;12.45;6.43;;;;;;;17.39;45.81;100031.28;5013350;28;20021;-80
2022/10/31 07:20:57;;;;;;;9.75;5.40;;;;;;;16.71;45.71;99924.94;5010194;28;20502;-80
2022/10/31 07:23:23;;;;;;;10.27;5.25;;;;;;;17.42;45.47;100026.34;5009888;28;20037;-80
2022/10/31 07:25:54;;;;;;;7.63;4.65;;;;;;;17.21;45.55;99991.09;5012308;28;20021;-80
2022/10/31 07:28:19;;;;;;;7.60;5.32;;;;;;;17.29;45.60;99996.22;5009284;28;20536;-79
2022/10/31 07:30:49;;;;;;;7.28;4.40;;;;;;;17.64;44.97;100042.09;5012438;28;20017;-79
2022/10/31 07:33:15;;;;;;;7.72;5.57;;;;;;;17.06;45.00;99924.63;5003059;28;20026;-80
2022/10/31 07:35:40;;;;;;;5.75;4.13;;;;;;;17.37;45.11;99959.44;5008029;28;20053;-80
2022/10/31 07:38:11;;;;;;;9.38;4.75;;;;;;;17.56;45.13;100004.94;5011627;28;20479;-80
2022/10/31 07:40:37;;;;;;;7.13;4.50;;;;;;;17.71;44.94;100002.84;5011163;28;20034;-80
2022/10/31 07:43:02;;;;;;;12.55;4.50;;;;;;;17.48;44.95;99976.63;5025603;28;20029;-80
2022/10/31 07:45:28;;;;;;;7.07;5.20;;;;;;;17.31;44.89;99954.94;5006886;28;20549;-80
2022/10/31 07:47:54;;;;;;;7.30;4.15;;;;;;;17.13;44.87;99931.63;5010252;28;20418;-80
2022/10/31 07:50:21;;;;;;;10.90;5.03;;;;;;;17.74;44.93;100029.94;5010859;28;20101;-80
2022/10/31 07:52:47;;;;;;;11.93;5.10;;;;;;;17.74;44.70;100032.63;5011453;28;20510;-80
2022/10/31 07:55:13;;;;;;;10.35;6.05;;;;;;;17.59;45.01;100012.53;5012251;28;20053;-80
2022/10/31 07:57:39;;;;;;;9.43;4.72;;;;;;;17.18;44.76;99930.97;5011895;28;20022;-80
2022/10/31 08:00:09;;;;;;;8.93;5.40;;;;;;;17.39;44.70;99980.56;5011432;28;20041;-80
2022/10/31 08:02:35;;;;;;;8.23;5.10;;;;;;;17.92;44.74;100036.47;5012153;28;20033;-80
2022/10/31 08:05:01;;;;;;;8.20;4.40;;;;;;;17.31;44.75;99928.25;5010521;28;20014;-80
2022/10/31 08:07:28;;;;;;;9.43;4.90;;;;;;;18.09;44.38;100032.25;5005214;28;20049;-80
2022/10/31 08:09:53;;;;;;;9.20;4.80;;;;;;;18.08;44.58;100038.63;5008613;28;20033;-80
2022/10/31 08:12:19;;;;;;;12.07;4.95;;;;;;;17.63;44.28;99946.97;5003283;28;20022;-80
2022/10/31 08:14:44;;;;;;;9.25;5.55;;;;;;;17.61;44.09;99941.84;5004344;28;20042;-79
2022/10/31 08:17:10;;;;;;;10.10;4.57;;;;;;;17.01;43.89;99815.88;5008552;28;20025;-80
2022/10/31 08:19:36;;;;;;;9.65;4.93;;;;;;;18.48;43.77;100041.03;5010408;28;20022;-80
2022/10/31 08:22:01;;;;;;;7.95;4.20;;;;;;;17.96;43.59;99977.03;5011323;28;20026;-79
2022/10/31 08:24:27;;;;;;;8.80;4.43;;;;;;;17.88;43.60;99909.69;5010586;28;20087;-79
2022/10/31 08:26:52;;;;;;;10.82;4.35;;;;;;;17.29;43.60;99839.56;5011233;28;20109;-80
2022/10/31 08:29:17;;;;;;;8.93;4.80;;;;;;;18.32;43.10;99976.38;5010910;28;20034;-80
2022/10/31 08:31:43;;;;;;;5.43;3.92;;;;;;;18.39;43.15;99965.63;5009546;28;20026;-79
2022/10/31 08:34:08;;;;;;;9.35;5.60;;;;;;;18.53;43.16;99966.31;5010243;28;20025;-80
2022/10/31 08:36:34;;;;;;;8.77;4.15;;;;;;;18.71;42.81;100002.00;5011370;28;20022;-78
2022/10/31 08:38:59;;;;;;;6.70;4.32;;;;;;;18.44;42.74;99955.09;5010001;28;20572;-78
2022/10/31 08:41:25;;;;;;;6.68;4.00;;;;;;;18.57;42.59;99963.00;5006952;28;20068;-78
2022/10/31 08:43:50;;;;;;;6.70;3.80;;;;;;;19.17;42.28;100042.75;5000213;28;20577;-80
2022/10/31 08:46:16;;;;;;;7.63;3.38;;;;;;;18.95;42.58;99988.81;5009789;28;20030;-78
2022/10/31 08:48:42;;;;;;;17.02;11.20;;;;;;;18.58;42.38;99913.00;5009467;28;20029;-79
2022/10/31 08:51:08;;;;;;;6.47;4.25;;;;;;;19.43;42.10;100034.44;5010111;28;20549;-80
2022/10/31 08:53:34;;;;;;;9.18;4.57;;;;;;;18.89;42.03;99949.56;5011097;28;20022;-79
2022/10/31 08:55:59;;;;;;;7.53;5.10;;;;;;;19.58;42.11;100042.13;5008961;28;20014;-79
2022/10/31 08:58:25;;;;;;;8.05;4.32;;;;;;;19.63;41.73;100045.78;5008672;28;20490;-79
2022/10/31 09:00:53;;;;;;;8.15;4.03;;;;;;;19.72;41.59;100040.09;5003380;28;20073;-79
2022/10/31 09:03:24;;;;;;;9.43;4.20;;;;;;;19.78;41.50;100064.13;4991631;28;20054;-78
2022/10/31 09:05:54;;;;;;;12.65;4.53;;;;;;;18.32;41.55;99815.97;4991331;28;20022;-78
2022/10/31 09:08:19;;;;;;;8.23;4.65;;;;;;;19.81;41.28;100025.34;5007134;28;20053;-79
2022/10/31 09:10:45;;;;;;;14.52;10.38;;;;;;;19.81;41.48;100017.31;5008608;28;20026;-78
2022/10/31 09:13:13;;;;;;;8.65;5.57;;;;;;;19.38;41.20;99937.09;5005360;28;20021;-78
2022/10/31 09:15:42;;;;;;;8.93;5.45;;;;;;;20.09;41.12;100044.38;4996808;28;20030;-80
2022/10/31 09:18:09;;;;;;;6.53;4.07;;;;;;;20.15;40.98;100048.81;5005915;28;20458;-81
2022/10/31 09:20:36;;;;;;;8.23;5.10;;;;;;;19.84;40.90;99985.53;5008930;28;20026;-81
2022/10/31 09:23:08;;;;;;;8.55;4.32;;;;;;;19.56;40.95;99937.91;5007924;28;20041;-80
2022/10/31 09:25:35;;;;;;;8.40;4.00;;;;;;;19.67;40.68;99945.16;5014359;28;20026;-79
2022/10/31 09:28:02;;;;;;;9.70;4.72;;;;;;;20.42;40.69;100046.59;4998238;28;20018;-79
2022/10/31 09:30:29;;;;;;;18.38;4.90;;;;;;;20.51;40.57;100055.94;5015538;28;20072;-78
2022/10/31 09:33:00;;;;;;;8.02;4.18;;;;;;;20.29;40.20;99993.94;5015887;28;20018;-79
2022/10/31 09:35:27;;;;;;;6.20;3.92;;;;;;;20.48;40.12;100013.47;5013997;28;20414;-79
2022/10/31 09:38:00;;;;;;;9.38;4.10;;;;;;;20.05;40.00;99929.75;5016136;28;20513;-80
2022/10/31 09:40:38;;;;;;;10.05;4.47;;;;;;;20.67;39.69;100021.44;5017624;28;20036;-78
2022/10/31 09:43:37;;;;;;;14.32;6.68;;;;;;;20.77;39.71;100027.88;5017305;28;20491;-80
2022/10/31 09:46:20;;;;;;;10.52;5.38;;;;;;;20.60;39.73;99986.66;5009982;28;20474;-79
2022/10/31 09:48:52;;;;;;;11.45;7.03;;;;;;;21.01;39.78;100035.94;5013177;28;20029;-78
2022/10/31 09:51:30;;;;;;;8.68;4.40;;;;;;;20.54;39.68;99953.53;5013250;28;20032;-78
2022/10/31 09:54:05;;;;;;;13.88;11.30;;;;;;;19.77;39.67;99816.00;5013515;28;20083;-79
2022/10/31 09:56:31;;;;;;;12.00;6.93;;;;;;;21.20;39.83;100029.38;5006458;28;20038;-78
2022/10/31 09:59:01;;;;;;;11.02;4.85;;;;;;;20.83;39.43;99956.38;5008559;28;20476;-80
2022/10/31 10:01:42;;;;;;;9.48;4.43;;;;;;;21.38;39.30;100021.22;5010641;28;20032;-79
2022/10/31 10:04:20;;;;;;;9.45;5.40;;;;;;;21.45;39.08;100021.09;5009979;28;20033;-78
2022/10/31 10:06:49;;;;;;;12.07;6.85;;;;;;;20.79;38.98;99920.28;4993608;28;20577;-78
2022/10/31 10:09:14;;;;;;;11.05;5.63;;;;;;;21.04;38.77;99954.94;5002976;28;20040;-78
2022/10/31 10:12:08;;;;;;;10.50;5.85;;;;;;;21.55;38.70;100014.06;5011936;28;20550;-78
2022/10/31 10:15:00;;;;;;;9.70;5.60;;;;;;;21.55;38.67;100011.38;5015513;28;20025;-79
2022/10/31 10:17:43;;;;;;;9.75;6.57;;;;;;;21.61;38.72;100004.25;5003001;28;20053;-80
2022/10/31 10:20:23;;;;;;;10.63;6.28;;;;;;;21.70;38.66;100010.06;5003234;28;20026;-78
2022/10/31 10:23:16;;;;;;;9.15;7.63;;;;;;;21.30;38.67;99934.81;5010160;28;20030;-79
2022/10/31 10:25:46;;;;;;;9.95;5.38;;;;;;;21.46;38.47;99953.69;5005987;28;20419;-79
2022/10/31 10:28:25;;;;;;;15.38;10.25;;;;;;;21.88;38.31;99994.53;5014788;28;20033;-78
2022/10/31 10:30:59;;;;;;;8.30;4.68;;;;;;;21.92;38.06;100002.94;5013600;28;20095;-79
2022/10/31 10:33:32;;;;;;;7.97;4.75;;;;;;;21.55;37.95;99930.78;5005899;28;20025;-79
2022/10/31 10:36:21;;;;;;;8.13;4.13;;;;;;;22.01;37.07;99992.63;5013386;28;20037;-79
2022/10/31 10:38:49;;;;;;;10.48;5.10;;;;;;;21.94;37.75;99975.81;5013513;28;20108;-79
2022/10/31 10:41:20;;;;;;;7.35;4.10;;;;;;;22.10;37.84;99988.50;4999288;28;20037;-80
2022/10/31 10:43:48;;;;;;;7.85;6.30;;;;;;;22.05;37.72;99972.28;5011068;28;20414;-78
2022/10/31 10:49:10;;;;;;;8.50;5.53;;;;;;;22.22;37.72;99989.25;4995532;28;20053;-77
2022/10/31 10:51:52;;;;;;;11.10;7.20;;;;;;;22.26;36.90;99990.41;4993795;28;20034;-78
2022/10/31 10:54:55;;;;;;;12.95;7.97;;;;;;;22.26;37.41;99981.50;5009271;28;20388;-77
2022/10/31 10:57:32;;;;;;;9.73;4.22;;;;;;;22.23;37.02;99985.50;5008682;28;20041;-78
2022/10/31 11:00:01;;;;;;;6.15;4.72;;;;;;;22.24;37.28;99972.88;4998396;28;20105;-79
2022/10/31 11:02:31;;;;;;;7.28;5.07;;;;;;;21.51;37.08;99878.53;4995314;28;20418;-79
2022/10/31 11:05:01;;;;;;;10.88;4.97;;;;;;;21.67;36.89;99876.97;5005745;28;20026;-78
2022/10/31 11:07:38;;;;;;;10.98;5.03;;;;;;;22.22;36.70;99969.59;5006189;28;20442;-78
2022/10/31 11:10:15;;;;;;;9.60;5.25;;;;;;;21.80;37.16;99906.22;5008090;28;20542;-79
2022/10/31 11:12:56;;;;;;;6.90;4.47;;;;;;;21.79;37.23;99914.53;5011449;28;20513;-78
2022/10/31 11:15:25;;;;;;;8.57;5.03;;;;;;;21.62;37.09;99884.13;5014172;28;20046;-79
2022/10/31 11:17:54;;;;;;;9.20;5.40;;;;;;;20.75;37.52;99787.63;5012968;28;20025;-79
2022/10/31 11:20:19;;;;;;;11.43;8.65;;;;;;;22.11;37.56;99960.56;5009741;28;20038;-79
2022/10/31 11:22:47;;;;;;;7.35;5.78;;;;;;;21.96;37.61;99928.81;5021005;28;20029;-79
2022/10/31 11:25:33;;;;;;;10.05;6.60;;;;;;;21.74;37.69;99909.88;5006827;28;20113;-79
2022/10/31 11:28:00;;;;;;;10.90;7.80;;;;;;;21.77;37.81;99903.22;5009302;28;20038;-79
2022/10/31 11:30:25;;;;;;;9.93;6.55;;;;;;;22.14;37.66;99946.63;5012216;28;20034;-79
2022/10/31 11:32:52;;;;;;;8.57;6.35;;;;;;;22.08;37.76;99948.41;5014224;28;20083;-79
2022/10/31 11:35:19;;;;;;;6.75;4.45;;;;;;;22.22;37.24;99954.28;5012392;28;20060;-80
2022/10/31 11:37:47;;;;;;;8.10;4.30;;;;;;;21.94;37.47;99930.13;5010783;28;20030;-79
2022/10/31 11:40:25;;;;;;;7.75;4.63;;;;;;;21.77;37.60;99906.72;5014711;28;20095;-79